createdAt,value
2022-08-17T00:00:55.368Z,49.6
2022-08-17T00:01:52.362Z,49.69
2022-08-17T00:02:45.311Z,49.51
2022-08-17T00:03:40.007Z,49.66
2022-08-17T00:04:40.019Z,49.63
2022-08-17T00:05:42.220Z,49.6
2022-08-17T00:06:49.112Z,49.71
2022-08-17T00:08:42.934Z,49.67
2022-08-17T00:09:40.046Z,49.73
2022-08-17T00:10:40.032Z,49.76
2022-08-17T00:11:42.242Z,49.89
2022-08-17T00:12:44.542Z,49.67
2022-08-17T00:13:47.406Z,49.85
2022-08-17T00:14:42.325Z,49.72
2022-08-17T00:15:40.014Z,49.47
2022-08-17T00:16:53.476Z,49.68
2022-08-17T00:17:40.028Z,49.71
2022-08-17T00:19:01.134Z,49.75
2022-08-17T00:19:42.633Z,49.65
2022-08-17T00:20:42.595Z,49.68
2022-08-17T00:22:31.395Z,49.75
2022-08-17T00:22:40.033Z,49.73
2022-08-17T00:23:47.852Z,49.79
2022-08-17T00:24:40.051Z,49.68
2022-08-17T00:25:39.987Z,49.76
2022-08-17T00:27:39.986Z,49.79
2022-08-17T00:28:45.126Z,49.65
2022-08-17T00:29:40.025Z,49.77
2022-08-17T00:30:48.678Z,49.9
2022-08-17T00:31:42.644Z,49.77
2022-08-17T00:33:12.188Z,49.73
2022-08-17T00:33:39.961Z,49.76
2022-08-17T00:34:40.014Z,49.81
2022-08-17T00:35:42.433Z,49.83
2022-08-17T00:36:39.967Z,49.91
2022-08-17T00:37:39.999Z,50.01
2022-08-17T00:38:42.342Z,49.98
2022-08-17T00:39:40.103Z,49.78
2022-08-17T00:40:44.392Z,49.77
2022-08-17T00:41:42.467Z,49.74
2022-08-17T00:42:40.267Z,49.88
2022-08-17T00:43:39.973Z,49.85
2022-08-17T00:44:39.947Z,49.81
2022-08-17T00:45:39.954Z,49.8
2022-08-17T00:46:39.978Z,49.99
2022-08-17T00:47:42.970Z,49.93
2022-08-17T00:48:40.022Z,49.83
2022-08-17T00:49:45.201Z,49.84
2022-08-17T00:50:42.062Z,49.83
2022-08-17T00:51:42.492Z,49.88
2022-08-17T00:52:39.995Z,49.94
2022-08-17T00:53:39.976Z,50.12
2022-08-17T00:54:42.288Z,50.01
2022-08-17T00:55:40.009Z,49.94
2022-08-17T00:56:39.973Z,50.02
2022-08-17T00:57:39.949Z,49.9
2022-08-17T00:59:42.174Z,50.12
2022-08-17T01:00:40.111Z,50
2022-08-17T01:01:39.980Z,49.88
2022-08-17T01:02:41.979Z,49.93
2022-08-17T01:03:39.947Z,50.07
2022-08-17T01:04:39.950Z,49.9
2022-08-17T01:05:42.168Z,49.96
2022-08-17T01:06:39.975Z,49.89
2022-08-17T01:07:39.952Z,50.02
2022-08-17T01:08:39.950Z,49.88
2022-08-17T01:09:39.953Z,49.96
2022-08-17T01:10:58.416Z,50
2022-08-17T01:11:39.982Z,50.22
2022-08-17T01:12:39.912Z,50.22
2022-08-17T01:13:42.902Z,49.99
2022-08-17T01:14:39.914Z,50.18
2022-08-17T01:16:16.444Z,50.18
2022-08-17T01:16:41.256Z,50.09
2022-08-17T01:17:39.966Z,50.02
2022-08-17T01:18:39.915Z,50.12
2022-08-17T01:19:39.934Z,50.19
2022-08-17T01:20:43.067Z,50.19
2022-08-17T01:21:39.965Z,50.04
2022-08-17T01:22:39.910Z,50.19
2022-08-17T01:23:42.325Z,50.11
2022-08-17T01:24:39.922Z,50.16
2022-08-17T01:25:42.480Z,50.28
2022-08-17T01:26:39.927Z,50.09
2022-08-17T01:27:39.901Z,50.27
2022-08-17T01:28:55.004Z,50.33
2022-08-17T01:29:42.478Z,50.18
2022-08-17T01:30:58.839Z,50.18
2022-08-17T01:31:57.242Z,50.37
2022-08-17T01:32:47.070Z,50.45
2022-08-17T01:33:39.955Z,50.34
2022-08-17T01:36:40.097Z,50.17
2022-08-17T01:37:42.276Z,50.25
2022-08-17T01:38:39.923Z,50.2
2022-08-17T01:39:41.975Z,50.26
2022-08-17T01:40:42.219Z,50.3
2022-08-17T01:41:39.911Z,50.3
2022-08-17T01:42:40.186Z,50.38
2022-08-17T01:43:47.340Z,50.34
2022-08-17T01:44:39.989Z,50.35
2022-08-17T01:45:41.945Z,50.25
2022-08-17T01:46:42.251Z,50.37
2022-08-17T01:47:40.177Z,50.39
2022-08-17T01:48:39.896Z,50.38
2022-08-17T01:49:42.257Z,50.36
2022-08-17T01:50:42.062Z,50.16
2022-08-17T01:51:42.370Z,50.55
2022-08-17T01:52:39.942Z,50.42
2022-08-17T01:54:39.898Z,50.51
2022-08-17T01:55:39.917Z,50.48
2022-08-17T01:56:42.143Z,50.34
2022-08-17T01:57:39.886Z,50.44
2022-08-17T01:58:39.903Z,50.38
2022-08-17T01:59:42.106Z,50.41
2022-08-17T02:01:00.084Z,50.56
2022-08-17T02:01:42.977Z,50.45
2022-08-17T02:02:39.867Z,50.57
2022-08-17T02:03:41.931Z,50.42
2022-08-17T02:04:39.907Z,50.36
2022-08-17T02:05:39.890Z,50.46
2022-08-17T02:06:45.227Z,50.47
2022-08-17T02:07:47.977Z,50.43
2022-08-17T02:09:02.476Z,50.45
2022-08-17T02:09:42.182Z,50.42
2022-08-17T02:10:46.778Z,50.74
2022-08-17T02:11:42.246Z,50.5
2022-08-17T02:12:48.875Z,50.55
2022-08-17T02:13:39.882Z,50.64
2022-08-17T02:14:39.905Z,50.46
2022-08-17T02:15:39.898Z,50.52
2022-08-17T02:16:39.909Z,50.42
2022-08-17T02:17:57.338Z,50.52
2022-08-17T02:18:39.919Z,50.66
2022-08-17T02:19:39.888Z,50.48
2022-08-17T02:20:42.969Z,50.53
2022-08-17T02:21:39.850Z,50.29
2022-08-17T02:22:39.841Z,50.41
2022-08-17T02:23:39.954Z,50.54
2022-08-17T02:24:59.469Z,50.49
2022-08-17T02:25:41.922Z,50.51
2022-08-17T02:26:39.880Z,50.44
2022-08-17T02:27:45.336Z,50.37
2022-08-17T02:28:39.916Z,50.46
2022-08-17T02:29:42.109Z,50.46
2022-08-17T02:31:02.002Z,50.46
2022-08-17T02:31:39.829Z,50.34
2022-08-17T02:32:42.147Z,50.4
2022-08-17T02:33:42.167Z,50.29
2022-08-17T02:34:39.872Z,50.43
2022-08-17T02:35:42.095Z,50.31
2022-08-17T02:36:39.861Z,50.29
2022-08-17T02:37:39.835Z,50.24
2022-08-17T02:38:42.675Z,50.1
2022-08-17T02:39:39.923Z,50.27
2022-08-17T02:40:39.832Z,50.33
2022-08-17T02:41:45.294Z,50.15
2022-08-17T02:42:42.195Z,50.37
2022-08-17T02:43:39.862Z,50.13
2022-08-17T02:44:40.268Z,50.37
2022-08-17T02:45:39.843Z,50.15
2022-08-17T02:46:40.081Z,50.15
2022-08-17T02:47:41.877Z,50.12
2022-08-17T02:48:39.808Z,50.37
2022-08-17T02:49:39.832Z,50.09
2022-08-17T02:50:39.860Z,50.14
2022-08-17T02:51:39.898Z,50.2
2022-08-17T02:52:43.529Z,50.03
2022-08-17T02:53:45.339Z,50.03
2022-08-17T02:54:42.362Z,50.31
2022-08-17T02:55:39.854Z,50.24
2022-08-17T02:56:39.904Z,50.27
2022-08-17T02:57:42.165Z,50.32
2022-08-17T02:58:39.801Z,50.23
2022-08-17T02:59:46.822Z,50.31
2022-08-17T03:00:42.073Z,50.08
2022-08-17T03:01:50.088Z,50.16
2022-08-17T03:02:39.800Z,50.21
2022-08-17T03:03:39.886Z,50.11
2022-08-17T03:04:39.791Z,50.07
2022-08-17T03:05:39.847Z,50.23
2022-08-17T03:06:39.805Z,50.18
2022-08-17T03:07:39.787Z,50.13
2022-08-17T03:08:42.824Z,50.1
2022-08-17T03:09:39.826Z,50.06
2022-08-17T03:10:39.866Z,50.14
2022-08-17T03:11:47.256Z,50.2
2022-08-17T03:12:39.778Z,50.19
2022-08-17T03:13:44.904Z,50.17
2022-08-17T03:14:41.689Z,50.12
2022-08-17T03:15:43.780Z,50.21
2022-08-17T03:16:39.897Z,50.19
2022-08-17T03:17:39.861Z,50.08
2022-08-17T03:18:39.845Z,50.1
2022-08-17T03:19:43.156Z,50.06
2022-08-17T03:20:42.032Z,50.1
2022-08-17T03:21:42.330Z,49.98
2022-08-17T03:22:42.285Z,49.88
2022-08-17T03:24:00.817Z,49.93
2022-08-17T03:24:39.799Z,50.07
2022-08-17T03:25:39.779Z,50.16
2022-08-17T03:26:39.791Z,50.06
2022-08-17T03:27:39.788Z,50.11
2022-08-17T03:28:39.814Z,50.17
2022-08-17T03:29:42.438Z,50
2022-08-17T03:30:39.773Z,49.99
2022-08-17T03:31:41.947Z,49.87
2022-08-17T03:32:39.762Z,49.93
2022-08-17T03:33:39.759Z,49.97
2022-08-17T03:34:39.766Z,50.02
2022-08-17T03:35:41.927Z,50.15
2022-08-17T03:36:39.755Z,50.01
2022-08-17T03:37:39.810Z,50.06
2022-08-17T03:38:39.826Z,49.97
2022-08-17T03:39:44.913Z,49.88
2022-08-17T03:40:58.542Z,49.94
2022-08-17T03:41:57.165Z,49.79
2022-08-17T03:42:39.783Z,49.89
2022-08-17T03:43:42.815Z,50.15
2022-08-17T03:44:42.153Z,49.99
2022-08-17T03:45:39.782Z,49.95
2022-08-17T03:47:39.770Z,49.88
2022-08-17T03:48:41.980Z,49.92
2022-08-17T03:49:39.767Z,49.89
2022-08-17T03:50:42.238Z,50.08
2022-08-17T03:51:39.848Z,50.02
2022-08-17T03:52:42.506Z,50.02
2022-08-17T03:53:39.779Z,50.07
2022-08-17T03:54:39.813Z,49.88
2022-08-17T03:55:39.777Z,49.97
2022-08-17T03:57:39.851Z,49.91
2022-08-17T03:58:45.255Z,50
2022-08-17T03:59:57.259Z,49.9
2022-08-17T04:01:42.213Z,50.07
2022-08-17T04:02:39.847Z,49.99
2022-08-17T04:04:39.762Z,50.13
2022-08-17T04:05:39.753Z,50.05
2022-08-17T04:06:39.718Z,49.87
2022-08-17T04:07:40.078Z,50.03
2022-08-17T04:09:57.034Z,53.54
2022-08-17T04:10:44.906Z,52.97
2022-08-17T04:11:39.781Z,53.53
2022-08-17T04:12:39.936Z,52.82
2022-08-17T04:13:51.072Z,52.81
2022-08-17T04:14:53.504Z,53.03
2022-08-17T04:15:42.380Z,53.82
2022-08-17T04:16:39.726Z,52.47
2022-08-17T04:17:39.714Z,52.85
2022-08-17T04:18:39.782Z,52.85
2022-08-17T04:19:42.030Z,52.62
2022-08-17T04:20:39.734Z,51.45
2022-08-17T04:21:42.382Z,52.63
2022-08-17T04:22:39.715Z,52.4
2022-08-17T04:23:39.720Z,51.94
2022-08-17T04:25:42.097Z,50.78
2022-08-17T04:26:52.177Z,50.02
2022-08-17T04:27:39.794Z,50.8
2022-08-17T04:28:39.707Z,51.1
2022-08-17T04:29:54.439Z,50.54
2022-08-17T04:30:39.731Z,50.07
2022-08-17T04:31:39.716Z,51.68
2022-08-17T04:33:03.665Z,51.28
2022-08-17T04:33:42.299Z,51.09
2022-08-17T04:34:39.680Z,52.09
2022-08-17T04:35:39.738Z,52.23
2022-08-17T04:36:42.333Z,52.08
2022-08-17T04:37:39.727Z,52.36
2022-08-17T04:38:39.717Z,51.59
2022-08-17T04:39:39.785Z,51.51
2022-08-17T04:40:41.018Z,52.04
2022-08-17T04:41:39.719Z,52.7
2022-08-17T04:42:41.901Z,50.93
2022-08-17T04:43:39.955Z,51.91
2022-08-17T04:44:39.676Z,52.12
2022-08-17T04:45:39.682Z,51.76
2022-08-17T04:46:39.685Z,51.49
2022-08-17T04:47:39.718Z,52.27
2022-08-17T04:48:42.497Z,51.16
2022-08-17T04:49:39.715Z,52.22
2022-08-17T04:50:41.953Z,51.8
2022-08-17T04:51:39.748Z,52.84
2022-08-17T04:52:45.160Z,51.78
2022-08-17T04:53:42.604Z,51.93
2022-08-17T04:54:41.803Z,51.59
2022-08-17T04:55:44.754Z,51.69
2022-08-17T04:56:42.143Z,51.35
2022-08-17T04:57:44.570Z,52.29
2022-08-17T04:58:48.389Z,52.12
2022-08-17T04:59:42.211Z,51.9
2022-08-17T05:00:41.900Z,51.84
2022-08-17T05:01:39.832Z,52.31
2022-08-17T05:02:49.885Z,51.83
2022-08-17T05:03:41.957Z,51.8
2022-08-17T05:04:39.710Z,50.92
2022-08-17T05:05:42.201Z,51.75
2022-08-17T05:06:39.670Z,52.12
2022-08-17T05:07:41.888Z,50.95
2022-08-17T05:08:39.701Z,51.85
2022-08-17T05:09:42.654Z,51.92
2022-08-17T05:10:45.281Z,52.23
2022-08-17T05:11:44.978Z,51.62
2022-08-17T05:12:55.128Z,51.85
2022-08-17T05:13:41.920Z,51.16
2022-08-17T05:14:44.975Z,51.64
2022-08-17T05:15:45.158Z,51.49
2022-08-17T05:16:39.654Z,51.01
2022-08-17T05:17:39.639Z,51.57
2022-08-17T05:18:39.650Z,51.68
2022-08-17T05:19:42.049Z,52.55
2022-08-17T05:20:42.270Z,51.64
2022-08-17T05:21:39.726Z,52.32
2022-08-17T05:22:41.952Z,50.89
2022-08-17T05:23:42.844Z,51.69
2022-08-17T05:24:53.749Z,51.53
2022-08-17T05:25:39.900Z,51.48
2022-08-17T05:26:42.282Z,51.32
2022-08-17T05:27:39.691Z,51.37
2022-08-17T05:28:39.658Z,51.41
2022-08-17T05:29:41.951Z,52.33
2022-08-17T05:30:43.301Z,51.14
2022-08-17T05:31:39.676Z,51.84
2022-08-17T05:32:40.454Z,51.72
2022-08-17T05:33:44.287Z,51.95
2022-08-17T05:34:39.694Z,51.75
2022-08-17T05:35:39.631Z,51.03
2022-08-17T05:36:47.120Z,52.06
2022-08-17T05:37:45.361Z,53.09
2022-08-17T05:38:41.679Z,53.17
2022-08-17T05:39:44.645Z,54.13
2022-08-17T05:40:42.697Z,54.52
2022-08-17T05:41:47.020Z,54.07
2022-08-17T05:42:39.696Z,54.23
2022-08-17T05:43:39.675Z,55.05
2022-08-17T05:44:39.653Z,54.9
2022-08-17T05:45:55.691Z,54.69
2022-08-17T05:46:39.662Z,54.78
2022-08-17T05:47:39.900Z,54.39
2022-08-17T05:48:40.486Z,54.84
2022-08-17T05:49:39.632Z,54.81
2022-08-17T05:50:42.181Z,54.14
2022-08-17T05:51:39.617Z,54.37
2022-08-17T05:52:45.333Z,53.48
2022-08-17T05:53:56.908Z,53.84
2022-08-17T05:54:39.636Z,53.47
2022-08-17T05:55:39.598Z,53.72
2022-08-17T05:56:46.995Z,53.14
2022-08-17T05:57:43.423Z,52.88
2022-08-17T05:58:42.162Z,53.25
2022-08-17T05:59:39.836Z,53.04
2022-08-17T06:00:42.537Z,52.79
2022-08-17T06:01:39.745Z,53.11
2022-08-17T06:02:43.023Z,53.14
2022-08-17T06:03:39.597Z,52.48
2022-08-17T06:04:39.642Z,52.8
2022-08-17T06:06:39.606Z,51.67
2022-08-17T06:07:40.578Z,52.59
2022-08-17T06:08:39.671Z,53.01
2022-08-17T06:09:39.852Z,53.02
2022-08-17T06:10:42.070Z,52.8
2022-08-17T06:11:39.565Z,52.77
2022-08-17T06:12:41.668Z,51.66
2022-08-17T06:13:39.588Z,51.56
2022-08-17T06:14:42.835Z,51.88
2022-08-17T06:15:39.580Z,50.86
2022-08-17T06:17:00.270Z,51.56
2022-08-17T06:17:39.584Z,53.01
2022-08-17T06:18:39.595Z,53.43
2022-08-17T06:19:39.592Z,55.22
2022-08-17T06:20:39.572Z,54.86
2022-08-17T06:21:39.648Z,55.51
2022-08-17T06:22:39.554Z,54.83
2022-08-17T06:23:39.583Z,55.92
2022-08-17T06:24:39.675Z,54.97
2022-08-17T06:25:39.594Z,55.21
2022-08-17T06:26:43.400Z,54.45
2022-08-17T06:27:39.606Z,54.81
2022-08-17T06:28:41.834Z,54.09
2022-08-17T06:29:42.052Z,54.18
2022-08-17T06:31:00.403Z,54.64
2022-08-17T06:31:39.596Z,54.16
2022-08-17T06:32:42.299Z,53.56
2022-08-17T06:33:39.598Z,53.69
2022-08-17T06:34:42.048Z,53.18
2022-08-17T06:35:42.487Z,53.84
2022-08-17T06:36:39.591Z,53.08
2022-08-17T06:37:39.563Z,53.64
2022-08-17T06:38:39.602Z,52.56
2022-08-17T06:39:39.618Z,52.45
2022-08-17T06:40:39.560Z,53.7
2022-08-17T06:41:41.807Z,52.78
2022-08-17T06:43:01.967Z,53.37
2022-08-17T06:43:47.928Z,53.49
2022-08-17T06:44:50.695Z,53.31
2022-08-17T06:45:39.547Z,53.18
2022-08-17T06:46:39.607Z,52.16
2022-08-17T06:47:39.640Z,52.98
2022-08-17T06:48:39.597Z,52.73
2022-08-17T06:49:39.554Z,52.51
2022-08-17T06:50:39.571Z,52.39
2022-08-17T06:51:39.562Z,52.51
2022-08-17T06:52:46.618Z,52.2
2022-08-17T06:53:39.564Z,51.9
2022-08-17T06:54:42.437Z,53.37
2022-08-17T06:55:39.529Z,50.98
2022-08-17T06:56:53.331Z,51.64
2022-08-17T06:57:46.862Z,51.97
2022-08-17T06:58:40.262Z,51.94
2022-08-17T06:59:55.305Z,53.07
2022-08-17T07:00:39.581Z,52.47
2022-08-17T07:01:39.613Z,52.82
2022-08-17T07:03:41.757Z,52.29
2022-08-17T07:04:42.076Z,52.42
2022-08-17T07:05:39.619Z,52.76
2022-08-17T07:06:39.559Z,51.95
2022-08-17T07:07:49.600Z,52.22
2022-08-17T07:08:39.560Z,52.17
2022-08-17T07:09:39.534Z,51.97
2022-08-17T07:10:46.221Z,53.07
2022-08-17T07:11:39.545Z,52.91
2022-08-17T07:12:39.533Z,51.23
2022-08-17T07:13:39.560Z,52.06
2022-08-17T07:14:39.617Z,51.62
2022-08-17T07:15:42.318Z,51.57
2022-08-17T07:16:42.054Z,51.86
2022-08-17T07:17:47.217Z,52.05
2022-08-17T07:18:39.528Z,51.64
2022-08-17T07:19:41.909Z,51.56
2022-08-17T07:21:00.541Z,51.03
2022-08-17T07:21:41.780Z,51.2
2022-08-17T07:22:54.777Z,51.35
2022-08-17T07:23:39.525Z,51.17
2022-08-17T07:24:39.565Z,51.23
2022-08-17T07:25:39.535Z,51.8
2022-08-17T07:26:59.765Z,51.69
2022-08-17T07:27:39.546Z,52.3
2022-08-17T07:28:39.543Z,53.96
2022-08-17T07:29:42.245Z,53.67
2022-08-17T07:30:45.783Z,55.22
2022-08-17T07:31:46.937Z,55.14
2022-08-17T07:32:41.786Z,54.1
2022-08-17T07:33:39.542Z,54.14
2022-08-17T07:34:41.927Z,53.96
2022-08-17T07:35:41.260Z,54.68
2022-08-17T07:36:39.570Z,55.1
2022-08-17T07:37:39.567Z,54.94
2022-08-17T07:38:42.334Z,54.92
2022-08-17T07:39:59.689Z,54.68
2022-08-17T07:40:39.917Z,54.5
2022-08-17T07:41:53.327Z,54.43
2022-08-17T07:42:43.127Z,54.44
2022-08-17T07:43:39.883Z,54.34
2022-08-17T07:44:44.803Z,53.94
2022-08-17T07:45:39.496Z,53.88
2022-08-17T07:46:42.524Z,53.52
2022-08-17T07:47:42.452Z,54.01
2022-08-17T07:48:39.569Z,53.98
2022-08-17T07:49:39.543Z,54.16
2022-08-17T07:50:39.519Z,52.65
2022-08-17T07:51:39.496Z,52.65
2022-08-17T07:52:51.931Z,52.54
2022-08-17T07:53:39.519Z,52.07
2022-08-17T07:54:39.523Z,52.5
2022-08-17T07:55:44.560Z,52.04
2022-08-17T07:56:39.501Z,51.56
2022-08-17T07:57:39.533Z,51
2022-08-17T07:58:39.480Z,52.09
2022-08-17T07:59:41.798Z,52.29
2022-08-17T08:00:42.192Z,52.23
2022-08-17T08:01:42.528Z,51.12
2022-08-17T08:02:39.493Z,51.36
2022-08-17T08:03:41.628Z,51.26
2022-08-17T08:05:50.243Z,50.79
2022-08-17T08:06:46.688Z,49.98
2022-08-17T08:07:39.455Z,49.9
2022-08-17T08:08:39.490Z,51.23
2022-08-17T08:09:39.507Z,52.52
2022-08-17T08:10:39.477Z,52.22
2022-08-17T08:11:44.141Z,52.1
2022-08-17T08:12:41.812Z,52.5
2022-08-17T08:13:44.619Z,53.13
2022-08-17T08:14:39.502Z,52.4
2022-08-17T08:15:39.465Z,52.29
2022-08-17T08:16:46.592Z,53.03
2022-08-17T08:17:39.692Z,52.73
2022-08-17T08:18:55.852Z,52.36
2022-08-17T08:19:43.203Z,53.01
2022-08-17T08:20:53.128Z,52.68
2022-08-17T08:21:41.858Z,52.73
2022-08-17T08:22:39.472Z,52.94
2022-08-17T08:23:39.445Z,52.94
2022-08-17T08:24:39.488Z,51.43
2022-08-17T08:25:39.493Z,51.96
2022-08-17T08:26:39.516Z,52.83
2022-08-17T08:27:39.462Z,52.62
2022-08-17T08:28:42.306Z,52.29
2022-08-17T08:29:39.453Z,51.97
2022-08-17T08:30:39.483Z,52.62
2022-08-17T08:31:42.329Z,52.25
2022-08-17T08:32:39.466Z,51.98
2022-08-17T08:33:39.495Z,51.24
2022-08-17T08:35:00.901Z,50.56
2022-08-17T08:35:39.561Z,53.4
2022-08-17T08:37:14.050Z,52.92
2022-08-17T08:37:42.870Z,52.96
2022-08-17T08:38:41.914Z,52.57
2022-08-17T08:39:39.543Z,54.89
2022-08-17T08:40:41.497Z,55.06
2022-08-17T08:41:39.512Z,54.86
2022-08-17T08:42:41.716Z,55.2
2022-08-17T08:43:39.584Z,56.29
2022-08-17T08:44:59.681Z,56.7
2022-08-17T08:45:42.360Z,56.4
2022-08-17T08:46:39.538Z,55.74
2022-08-17T08:47:39.533Z,56.24
2022-08-17T08:48:53.955Z,55.98
2022-08-17T08:50:02.697Z,55.57
2022-08-17T08:50:39.500Z,55.51
2022-08-17T08:51:39.481Z,55.78
2022-08-17T08:52:42.246Z,55.55
2022-08-17T08:53:39.515Z,55.15
2022-08-17T08:54:42.352Z,54.59
2022-08-17T08:55:41.669Z,54.57
2022-08-17T08:57:19.271Z,54.44
2022-08-17T08:57:41.445Z,54.91
2022-08-17T08:58:44.869Z,53.79
2022-08-17T08:59:42.066Z,53.81
2022-08-17T09:00:42.166Z,54.09
2022-08-17T09:01:39.497Z,54.13
2022-08-17T09:02:39.625Z,53.56
2022-08-17T09:03:52.244Z,53.77
2022-08-17T09:05:12.485Z,54.15
2022-08-17T09:05:39.437Z,53.5
2022-08-17T09:06:40.086Z,52.55
2022-08-17T09:07:41.678Z,53.72
2022-08-17T09:08:39.461Z,52.71
2022-08-17T09:09:39.481Z,52.73
2022-08-17T09:10:39.504Z,51.86
2022-08-17T09:12:01.953Z,52.4
2022-08-17T09:12:42.138Z,52.67
2022-08-17T09:13:46.954Z,53.74
2022-08-17T09:14:46.434Z,52.52
2022-08-17T09:15:39.425Z,53
2022-08-17T09:16:42.590Z,52.19
2022-08-17T09:17:39.435Z,52.39
2022-08-17T09:19:00.093Z,51.98
2022-08-17T09:19:42.229Z,51.81
2022-08-17T09:20:39.438Z,51.89
2022-08-17T09:21:47.749Z,50.59
2022-08-17T09:22:39.663Z,50.56
2022-08-17T09:23:42.157Z,52.16
2022-08-17T09:24:39.492Z,53.45
2022-08-17T09:25:39.439Z,53.34
2022-08-17T09:26:41.687Z,53.74
2022-08-17T09:27:39.452Z,53.08
2022-08-17T09:28:42.289Z,52.81
2022-08-17T09:29:39.591Z,54.47
2022-08-17T09:30:41.557Z,54.24
2022-08-17T09:31:49.103Z,55.55
2022-08-17T09:32:39.431Z,55.32
2022-08-17T09:33:41.531Z,54.72
2022-08-17T09:34:39.425Z,53.83
2022-08-17T09:35:39.418Z,53.46
2022-08-17T09:36:41.702Z,52.98
2022-08-17T09:37:46.631Z,53.39
2022-08-17T09:38:41.740Z,52.59
2022-08-17T09:39:41.887Z,52.96
2022-08-17T09:40:39.425Z,52.26
2022-08-17T09:41:48.651Z,52.3
2022-08-17T09:42:39.413Z,51.85
2022-08-17T09:43:39.643Z,51.42
2022-08-17T09:44:39.403Z,50.84
2022-08-17T09:45:41.661Z,50.73
2022-08-17T09:46:42.382Z,50.53
2022-08-17T09:47:42.215Z,50.93
2022-08-17T09:48:39.578Z,50.35
2022-08-17T09:49:39.446Z,50.85
2022-08-17T09:50:55.430Z,51.09
2022-08-17T09:51:41.644Z,51.46
2022-08-17T09:52:39.403Z,48.83
2022-08-17T09:53:39.449Z,50.69
2022-08-17T09:54:42.271Z,50.45
2022-08-17T09:55:39.409Z,50.36
2022-08-17T09:56:46.969Z,49.25
2022-08-17T09:57:41.779Z,49.48
2022-08-17T09:58:41.684Z,50.96
2022-08-17T09:59:42.028Z,49.92
2022-08-17T10:00:42.374Z,51.1
2022-08-17T10:01:41.731Z,50.45
2022-08-17T10:02:39.406Z,50.72
2022-08-17T10:03:47.908Z,50.49
2022-08-17T10:04:41.778Z,51.15
2022-08-17T10:05:39.376Z,51.02
2022-08-17T10:06:39.420Z,51
2022-08-17T10:07:42.337Z,51.58
2022-08-17T10:08:39.404Z,51.19
2022-08-17T10:09:39.420Z,50.46
2022-08-17T10:11:44.860Z,50.27
2022-08-17T10:12:46.372Z,49.81
2022-08-17T10:13:41.720Z,49.45
2022-08-17T10:14:43.479Z,50.02
2022-08-17T10:15:42.415Z,49.4
2022-08-17T10:16:42.328Z,49.49
2022-08-17T10:17:39.407Z,49.03
2022-08-17T10:18:39.406Z,49.31
2022-08-17T10:19:39.355Z,49.06
2022-08-17T10:20:42.674Z,49.12
2022-08-17T10:21:39.438Z,49.49
2022-08-17T10:22:42.404Z,49.06
2022-08-17T10:23:39.383Z,48.93
2022-08-17T10:25:21.149Z,49.22
2022-08-17T10:25:54.226Z,50.16
2022-08-17T10:26:46.317Z,49.57
2022-08-17T10:27:39.373Z,50.26
2022-08-17T10:28:42.363Z,50.87
2022-08-17T10:29:47.322Z,50.68
2022-08-17T10:30:39.364Z,51.24
2022-08-17T10:31:39.398Z,50.45
2022-08-17T10:32:39.392Z,50.4
2022-08-17T10:33:39.395Z,50.58
2022-08-17T10:34:41.577Z,51.4
2022-08-17T10:36:39.423Z,51.23
2022-08-17T10:37:39.350Z,50.71
2022-08-17T10:38:39.368Z,50.81
2022-08-17T10:39:50.490Z,51.12
2022-08-17T10:40:39.596Z,50.91
2022-08-17T10:41:40.508Z,49.35
2022-08-17T10:42:39.410Z,49.7
2022-08-17T10:43:58.921Z,49.59
2022-08-17T10:44:41.307Z,49.9
2022-08-17T10:45:44.793Z,49.52
2022-08-17T10:47:54.927Z,50.25
2022-08-17T10:48:39.324Z,50.4
2022-08-17T10:49:39.390Z,50.1
2022-08-17T10:50:41.915Z,50.75
2022-08-17T10:51:39.314Z,51.36
2022-08-17T10:52:39.340Z,50.79
2022-08-17T10:53:41.385Z,49.87
2022-08-17T10:54:41.763Z,49.41
2022-08-17T10:55:42.112Z,50.18
2022-08-17T10:57:41.662Z,50.24
2022-08-17T10:58:39.347Z,49.13
2022-08-17T10:59:41.825Z,49.22
2022-08-17T11:00:39.372Z,48.46
2022-08-17T11:01:46.618Z,49.1
2022-08-17T11:02:56.537Z,48.86
2022-08-17T11:03:41.919Z,48.08
2022-08-17T11:04:39.443Z,49.31
2022-08-17T11:05:44.071Z,50.71
2022-08-17T11:07:41.609Z,53.06
2022-08-17T11:08:39.324Z,52.35
2022-08-17T11:09:42.222Z,52.56
2022-08-17T11:10:41.605Z,52.48
2022-08-17T11:11:41.500Z,52.82
2022-08-17T11:12:42.374Z,52.23
2022-08-17T11:13:39.483Z,52.08
2022-08-17T11:14:39.374Z,52.04
2022-08-17T11:15:39.312Z,52.56
2022-08-17T11:16:41.745Z,51.46
2022-08-17T11:17:42.396Z,51.6
2022-08-17T11:19:39.275Z,51.66
2022-08-17T11:20:39.289Z,51.32
2022-08-17T11:21:39.321Z,51.24
2022-08-17T11:22:39.358Z,51.35
2022-08-17T11:23:39.470Z,51.44
2022-08-17T11:24:39.355Z,51.45
2022-08-17T11:25:39.289Z,50.81
2022-08-17T11:26:41.427Z,51
2022-08-17T11:27:40.524Z,50.82
2022-08-17T11:28:39.306Z,50.57
2022-08-17T11:29:39.270Z,51.08
2022-08-17T11:30:39.313Z,51.77
2022-08-17T11:31:42.098Z,51.78
2022-08-17T11:32:47.485Z,49.57
2022-08-17T11:33:41.669Z,49.65
2022-08-17T11:34:39.292Z,48.89
2022-08-17T11:35:44.415Z,48.29
2022-08-17T11:36:39.289Z,48.1
2022-08-17T11:37:44.600Z,48.2
2022-08-17T11:38:44.483Z,47.78
2022-08-17T11:39:44.477Z,48.26
2022-08-17T11:40:39.264Z,47.24
2022-08-17T11:41:39.317Z,47.2
2022-08-17T11:42:41.998Z,48.35
2022-08-17T11:43:44.409Z,48.69
2022-08-17T11:44:42.253Z,49.99
2022-08-17T11:45:39.350Z,52.24
2022-08-17T11:46:51.840Z,53.23
2022-08-17T11:47:40.434Z,53.51
2022-08-17T11:48:39.280Z,53.28
2022-08-17T11:49:39.295Z,53.32
2022-08-17T11:50:39.447Z,53.54
2022-08-17T11:51:46.426Z,54.3
2022-08-17T11:52:42.261Z,54.49
2022-08-17T11:53:39.279Z,54.54
2022-08-17T11:54:44.577Z,53.2
2022-08-17T11:56:39.271Z,52.95
2022-08-17T11:57:39.310Z,53.17
2022-08-17T11:58:39.256Z,52.29
2022-08-17T11:59:39.306Z,51.86
2022-08-17T12:00:39.306Z,51.31
2022-08-17T12:01:39.286Z,51.46
2022-08-17T12:02:48.458Z,51.28
2022-08-17T12:03:39.264Z,50.9
2022-08-17T12:04:39.382Z,49.97
2022-08-17T12:05:39.285Z,49.91
2022-08-17T12:06:39.246Z,50.14
2022-08-17T12:07:41.435Z,49.74
2022-08-17T12:08:39.228Z,48.48
2022-08-17T12:09:39.555Z,50.33
2022-08-17T12:10:39.279Z,51.03
2022-08-17T12:12:04.626Z,49.13
2022-08-17T12:12:39.254Z,48.87
2022-08-17T12:13:39.957Z,49.04
2022-08-17T12:15:10.660Z,51
2022-08-17T12:15:39.265Z,50.98
2022-08-17T12:16:39.249Z,51.8
2022-08-17T12:17:43.008Z,52.38
2022-08-17T12:18:42.028Z,52.83
2022-08-17T12:19:41.776Z,52.66
2022-08-17T12:20:44.698Z,52.99
2022-08-17T12:21:41.501Z,52.67
2022-08-17T12:22:46.804Z,52.31
2022-08-17T12:23:44.263Z,52.23
2022-08-17T12:24:42.237Z,52.57
2022-08-17T12:25:39.226Z,52.94
2022-08-17T12:26:39.245Z,52.08
2022-08-17T12:28:04.853Z,52.26
2022-08-17T12:28:39.338Z,51.89
2022-08-17T12:29:42.013Z,51.79
2022-08-17T12:31:39.241Z,50.83
2022-08-17T12:31:54.988Z,51.21
2022-08-17T12:32:56.589Z,49.95
2022-08-17T12:33:42.473Z,49.84
2022-08-17T12:34:41.967Z,49.88
2022-08-17T12:35:39.233Z,49.35
2022-08-17T12:37:42.209Z,49.83
2022-08-17T12:38:39.250Z,50
2022-08-17T12:39:39.339Z,49.68
2022-08-17T12:40:39.227Z,49.21
2022-08-17T12:41:42.281Z,49.49
2022-08-17T12:42:39.220Z,49.59
2022-08-17T12:43:46.433Z,49.48
2022-08-17T12:44:54.827Z,50.21
2022-08-17T12:45:39.265Z,50.96
2022-08-17T12:46:42.161Z,51.2
2022-08-17T12:47:41.938Z,51.86
2022-08-17T12:48:59.562Z,51.63
2022-08-17T12:49:41.574Z,51.76
2022-08-17T12:50:42.082Z,52.43
2022-08-17T12:51:39.194Z,52.87
2022-08-17T12:52:39.270Z,51.56
2022-08-17T12:53:39.331Z,51.68
2022-08-17T12:54:39.233Z,51.6
2022-08-17T12:55:44.701Z,51.35
2022-08-17T12:57:24.313Z,51.7
2022-08-17T12:57:41.417Z,51.82
2022-08-17T12:59:39.239Z,52.26
2022-08-17T13:00:47.759Z,51.76
2022-08-17T13:01:39.307Z,51.58
2022-08-17T13:02:39.177Z,50.86
2022-08-17T13:04:46.613Z,49.58
2022-08-17T13:05:40.375Z,49.34
2022-08-17T13:06:41.327Z,49.28
2022-08-17T13:07:41.537Z,49.74
2022-08-17T13:08:39.192Z,48.53
2022-08-17T13:09:40.289Z,48.53
2022-08-17T13:11:42.229Z,49.88
2022-08-17T13:12:39.242Z,49.08
2022-08-17T13:13:39.187Z,48.39
2022-08-17T13:14:39.235Z,49.3
2022-08-17T13:15:45.087Z,50.39
2022-08-17T13:16:41.490Z,50.96
2022-08-17T13:17:41.308Z,52.43
2022-08-17T13:18:39.287Z,52.9
2022-08-17T13:19:40.925Z,53.11
2022-08-17T13:20:39.201Z,52.9
2022-08-17T13:21:39.371Z,51.87